sensor_id;sensor_type;location;lat;lon;timestamp;pressure;altitude;pressure_sealevel;temperature;humidity
75438;BME280;64015;49.392;15.582;2023-06-14T00:02:14;95526.50;;;12.69;96.56
75438;BME280;64015;49.392;15.582;2023-06-14T00:04:41;95533.03;;;12.77;96.99
75438;BME280;64015;49.392;15.582;2023-06-14T00:07:07;95524.31;;;12.34;100.00
75438;BME280;64015;49.392;15.582;2023-06-14T00:09:34;95528.94;;;12.23;100.00
75438;BME280;64015;49.392;15.582;2023-06-14T00:12:00;95526.13;;;12.15;100.00
75438;BME280;64015;49.392;15.582;2023-06-14T00:14:26;95523.75;;;12.37;99.46
75438;BME280;64015;49.392;15.582;2023-06-14T00:16:52;95519.13;;;12.48;98.14
75438;BME280;64015;49.392;15.582;2023-06-14T00:19:24;95521.41;;;12.54;98.24
75438;BME280;64015;49.392;15.582;2023-06-14T00:21:50;95518.84;;;12.68;98.36
75438;BME280;64015;49.392;15.582;2023-06-14T00:24:17;95513.75;;;12.71;98.76
75438;BME280;64015;49.392;15.582;2023-06-14T00:26:43;95514.50;;;12.77;98.71
75438;BME280;64015;49.392;15.582;2023-06-14T00:29:08;95507.34;;;12.78;97.71
75438;BME280;64015;49.392;15.582;2023-06-14T00:31:34;95513.34;;;12.83;97.02
75438;BME280;64015;49.392;15.582;2023-06-14T00:34:00;95505.63;;;12.87;98.17
75438;BME280;64015;49.392;15.582;2023-06-14T00:36:26;95507.19;;;12.88;98.42
75438;BME280;64015;49.392;15.582;2023-06-14T00:38:51;95496.59;;;12.88;97.84
75438;BME280;64015;49.392;15.582;2023-06-14T00:41:17;95499.31;;;12.83;97.81
75438;BME280;64015;49.392;15.582;2023-06-14T00:43:42;95502.53;;;12.80;96.99
75438;BME280;64015;49.392;15.582;2023-06-14T00:46:08;95500.81;;;12.70;97.00
75438;BME280;64015;49.392;15.582;2023-06-14T00:48:34;95495.75;;;12.74;95.42
75438;BME280;64015;49.392;15.582;2023-06-14T00:51:01;95498.94;;;12.70;96.24
75438;BME280;64015;49.392;15.582;2023-06-14T00:53:30;95507.47;;;12.67;95.91
75438;BME280;64015;49.392;15.582;2023-06-14T00:55:59;95496.31;;;12.70;96.63
75438;BME280;64015;49.392;15.582;2023-06-14T00:58:26;95507.75;;;12.66;96.55
75438;BME280;64015;49.392;15.582;2023-06-14T01:00:51;95504.56;;;12.69;96.86
75438;BME280;64015;49.392;15.582;2023-06-14T01:03:17;95498.09;;;12.75;97.04
75438;BME280;64015;49.392;15.582;2023-06-14T01:05:49;95506.09;;;12.70;97.67
75438;BME280;64015;49.392;15.582;2023-06-14T01:08:26;95511.13;;;12.71;97.75
75438;BME280;64015;49.392;15.582;2023-06-14T01:11:05;95512.41;;;12.55;97.45
75438;BME280;64015;49.392;15.582;2023-06-14T01:13:35;95519.69;;;12.63;97.69
75438;BME280;64015;49.392;15.582;2023-06-14T01:16:02;95521.00;;;12.66;97.74
75438;BME280;64015;49.392;15.582;2023-06-14T01:18:29;95516.69;;;12.70;96.04
75438;BME280;64015;49.392;15.582;2023-06-14T01:20:55;95514.63;;;12.67;98.28
75438;BME280;64015;49.392;15.582;2023-06-14T01:23:22;95518.06;;;12.67;100.00
75438;BME280;64015;49.392;15.582;2023-06-14T01:25:49;95514.34;;;12.68;100.00
75438;BME280;64015;49.392;15.582;2023-06-14T01:28:20;95514.97;;;12.60;100.00
75438;BME280;64015;49.392;15.582;2023-06-14T01:30:49;95506.28;;;12.60;100.00
75438;BME280;64015;49.392;15.582;2023-06-14T01:33:26;95506.19;;;12.65;100.00
75438;BME280;64015;49.392;15.582;2023-06-14T01:35:53;95499.72;;;12.52;100.00
75438;BME280;64015;49.392;15.582;2023-06-14T01:38:23;95497.31;;;12.37;100.00
75438;BME280;64015;49.392;15.582;2023-06-14T01:40:51;95489.91;;;12.15;100.00
75438;BME280;64015;49.392;15.582;2023-06-14T01:43:18;95482.75;;;12.16;100.00
75438;BME280;64015;49.392;15.582;2023-06-14T01:45:47;95485.19;;;12.12;99.08
75438;BME280;64015;49.392;15.582;2023-06-14T01:48:14;95488.50;;;12.23;99.19
75438;BME280;64015;49.392;15.582;2023-06-14T01:50:40;95488.00;;;12.21;97.02
75438;BME280;64015;49.392;15.582;2023-06-14T01:53:08;95495.94;;;12.21;96.43
75438;BME280;64015;49.392;15.582;2023-06-14T01:55:34;95494.63;;;12.18;95.57
75438;BME280;64015;49.392;15.582;2023-06-14T01:58:03;95499.09;;;12.23;96.03
75438;BME280;64015;49.392;15.582;2023-06-14T02:00:29;95496.91;;;12.25;93.89
75438;BME280;64015;49.392;15.582;2023-06-14T02:02:55;95487.47;;;12.19;95.19
75438;BME280;64015;49.392;15.582;2023-06-14T02:05:21;95491.19;;;12.18;96.71
75438;BME280;64015;49.392;15.582;2023-06-14T02:07:47;95495.19;;;12.15;96.27
75438;BME280;64015;49.392;15.582;2023-06-14T02:10:13;95490.91;;;12.19;95.07
75438;BME280;64015;49.392;15.582;2023-06-14T02:12:39;95494.38;;;12.15;94.11
75438;BME280;64015;49.392;15.582;2023-06-14T02:15:06;95492.66;;;12.05;95.54
75438;BME280;64015;49.392;15.582;2023-06-14T02:17:32;95496.94;;;12.01;96.44
75438;BME280;64015;49.392;15.582;2023-06-14T02:19:58;95501.50;;;11.95;95.48
75438;BME280;64015;49.392;15.582;2023-06-14T02:22:23;95503.66;;;11.93;95.29
75438;BME280;64015;49.392;15.582;2023-06-14T02:24:49;95491.50;;;11.92;94.89
75438;BME280;64015;49.392;15.582;2023-06-14T02:27:15;95493.06;;;11.93;95.76
75438;BME280;64015;49.392;15.582;2023-06-14T02:29:41;95485.63;;;11.95;93.93
75438;BME280;64015;49.392;15.582;2023-06-14T02:32:06;95496.00;;;11.92;94.24
75438;BME280;64015;49.392;15.582;2023-06-14T02:34:33;95492.28;;;11.93;94.03
75438;BME280;64015;49.392;15.582;2023-06-14T02:37:00;95497.56;;;11.93;94.86
75438;BME280;64015;49.392;15.582;2023-06-14T02:39:29;95492.84;;;11.90;94.93
75438;BME280;64015;49.392;15.582;2023-06-14T02:41:54;95494.28;;;11.77;95.51
75438;BME280;64015;49.392;15.582;2023-06-14T02:44:24;95490.97;;;11.67;96.99
75438;BME280;64015;49.392;15.582;2023-06-14T02:46:51;95499.56;;;11.77;94.66
75438;BME280;64015;49.392;15.582;2023-06-14T02:49:17;95500.13;;;11.74;95.03
75438;BME280;64015;49.392;15.582;2023-06-14T02:51:42;95500.16;;;11.69;94.30
75438;BME280;64015;49.392;15.582;2023-06-14T02:54:08;95488.31;;;11.67;95.48
75438;BME280;64015;49.392;15.582;2023-06-14T02:56:34;95488.31;;;11.67;96.49
75438;BME280;64015;49.392;15.582;2023-06-14T02:59:00;95492.91;;;11.56;96.79
75438;BME280;64015;49.392;15.582;2023-06-14T03:01:26;95494.59;;;11.47;97.16
75438;BME280;64015;49.392;15.582;2023-06-14T03:04:03;95496.44;;;11.46;97.44
75438;BME280;64015;49.392;15.582;2023-06-14T03:06:29;95500.38;;;11.49;96.59
75438;BME280;64015;49.392;15.582;2023-06-14T03:08:56;95493.56;;;11.43;95.96
75438;BME280;64015;49.392;15.582;2023-06-14T03:11:46;95502.53;;;11.42;97.52
75438;BME280;64015;49.392;15.582;2023-06-14T03:14:43;95495.00;;;11.30;96.61
75438;BME280;64015;49.392;15.582;2023-06-14T03:17:12;95492.16;;;11.21;99.17
75438;BME280;64015;49.392;15.582;2023-06-14T03:19:38;95489.31;;;11.18;99.43
75438;BME280;64015;49.392;15.582;2023-06-14T03:22:03;95496.19;;;11.14;99.68
75438;BME280;64015;49.392;15.582;2023-06-14T03:24:30;95490.59;;;11.20;99.39
75438;BME280;64015;49.392;15.582;2023-06-14T03:26:57;95499.88;;;11.13;99.35
75438;BME280;64015;49.392;15.582;2023-06-14T03:29:23;95492.91;;;11.27;98.62
75438;BME280;64015;49.392;15.582;2023-06-14T03:32:02;95495.22;;;11.34;98.84
75438;BME280;64015;49.392;15.582;2023-06-14T03:34:28;95499.34;;;11.45;98.47
75438;BME280;64015;49.392;15.582;2023-06-14T03:36:54;95493.38;;;11.63;96.33
75438;BME280;64015;49.392;15.582;2023-06-14T03:39:20;95503.88;;;11.68;96.47
75438;BME280;64015;49.392;15.582;2023-06-14T03:41:46;95507.22;;;11.79;95.88
75438;BME280;64015;49.392;15.582;2023-06-14T03:44:15;95504.75;;;11.87;96.55
75438;BME280;64015;49.392;15.582;2023-06-14T03:46:42;95511.69;;;11.83;97.21
75438;BME280;64015;49.392;15.582;2023-06-14T03:49:07;95511.97;;;11.82;96.51
75438;BME280;64015;49.392;15.582;2023-06-14T03:51:33;95513.69;;;11.68;96.70
75438;BME280;64015;49.392;15.582;2023-06-14T03:54:01;95508.59;;;11.71;96.90
75438;BME280;64015;49.392;15.582;2023-06-14T03:56:27;95521.25;;;11.74;96.11
75438;BME280;64015;49.392;15.582;2023-06-14T03:58:52;95521.88;;;11.66;96.10
75438;BME280;64015;49.392;15.582;2023-06-14T04:01:18;95515.47;;;11.72;96.68
75438;BME280;64015;49.392;15.582;2023-06-14T04:03:43;95523.88;;;11.79;97.57
75438;BME280;64015;49.392;15.582;2023-06-14T04:06:09;95526.38;;;11.94;97.66
75438;BME280;64015;49.392;15.582;2023-06-14T04:08:35;95526.81;;;12.02;95.51
75438;BME280;64015;49.392;15.582;2023-06-14T04:11:01;95524.06;;;12.12;95.99
75438;BME280;64015;49.392;15.582;2023-06-14T04:13:27;95529.91;;;12.09;95.18
75438;BME280;64015;49.392;15.582;2023-06-14T04:15:53;95524.00;;;12.17;92.92
75438;BME280;64015;49.392;15.582;2023-06-14T04:18:19;95533.66;;;12.26;90.75
75438;BME280;64015;49.392;15.582;2023-06-14T04:20:46;95540.19;;;12.34;90.00
75438;BME280;64015;49.392;15.582;2023-06-14T04:23:16;95534.88;;;12.34;89.96
75438;BME280;64015;49.392;15.582;2023-06-14T04:25:44;95537.50;;;12.39;90.60
75438;BME280;64015;49.392;15.582;2023-06-14T04:28:13;95544.22;;;12.50;89.17
75438;BME280;64015;49.392;15.582;2023-06-14T04:30:43;95543.13;;;12.51;88.61
75438;BME280;64015;49.392;15.582;2023-06-14T04:33:08;95547.31;;;12.57;88.91
75438;BME280;64015;49.392;15.582;2023-06-14T04:35:35;95532.94;;;12.63;88.20
75438;BME280;64015;49.392;15.582;2023-06-14T04:38:05;95544.53;;;12.67;87.98
75438;BME280;64015;49.392;15.582;2023-06-14T04:40:35;95545.72;;;12.56;87.53
75438;BME280;64015;49.392;15.582;2023-06-14T04:43:08;95545.16;;;12.59;87.70
75438;BME280;64015;49.392;15.582;2023-06-14T04:45:37;95544.84;;;12.61;88.14
75438;BME280;64015;49.392;15.582;2023-06-14T04:48:05;95548.66;;;12.74;87.12
75438;BME280;64015;49.392;15.582;2023-06-14T04:50:32;95551.75;;;12.81;85.47
75438;BME280;64015;49.392;15.582;2023-06-14T04:52:58;95551.69;;;12.86;86.82
75438;BME280;64015;49.392;15.582;2023-06-14T04:55:25;95545.19;;;12.97;86.79
75438;BME280;64015;49.392;15.582;2023-06-14T04:57:51;95548.81;;;13.01;85.11
75438;BME280;64015;49.392;15.582;2023-06-14T05:00:20;95547.88;;;13.11;85.79
75438;BME280;64015;49.392;15.582;2023-06-14T05:02:45;95548.59;;;13.16;85.38
75438;BME280;64015;49.392;15.582;2023-06-14T05:05:12;95552.38;;;13.10;85.34
75438;BME280;64015;49.392;15.582;2023-06-14T05:07:38;95553.91;;;13.16;84.47
75438;BME280;64015;49.392;15.582;2023-06-14T05:10:05;95558.72;;;13.14;84.43
75438;BME280;64015;49.392;15.582;2023-06-14T05:12:31;95553.03;;;13.02;85.47
75438;BME280;64015;49.392;15.582;2023-06-14T05:14:57;95561.50;;;13.04;85.15
75438;BME280;64015;49.392;15.582;2023-06-14T05:17:24;95565.34;;;13.12;84.28
75438;BME280;64015;49.392;15.582;2023-06-14T05:19:50;95562.41;;;13.13;84.09
75438;BME280;64015;49.392;15.582;2023-06-14T05:22:16;95560.31;;;13.15;83.32
75438;BME280;64015;49.392;15.582;2023-06-14T05:24:41;95564.84;;;13.28;83.85
75438;BME280;64015;49.392;15.582;2023-06-14T05:27:07;95573.00;;;13.13;85.99
75438;BME280;64015;49.392;15.582;2023-06-14T05:29:33;95560.63;;;13.27;83.68
75438;BME280;64015;49.392;15.582;2023-06-14T05:31:59;95563.16;;;13.19;83.22
75438;BME280;64015;49.392;15.582;2023-06-14T05:34:25;95560.13;;;13.25;81.96
75438;BME280;64015;49.392;15.582;2023-06-14T05:36:51;95560.91;;;13.26;82.31
75438;BME280;64015;49.392;15.582;2023-06-14T05:39:16;95557.47;;;13.25;83.25
75438;BME280;64015;49.392;15.582;2023-06-14T05:41:42;95558.25;;;13.26;82.91
75438;BME280;64015;49.392;15.582;2023-06-14T05:44:08;95567.38;;;13.20;83.66
75438;BME280;64015;49.392;15.582;2023-06-14T05:46:34;95570.53;;;13.22;85.53
75438;BME280;64015;49.392;15.582;2023-06-14T05:49:00;95570.94;;;13.29;84.16
75438;BME280;64015;49.392;15.582;2023-06-14T05:51:25;95576.75;;;13.31;82.79
75438;BME280;64015;49.392;15.582;2023-06-14T05:53:52;95577.38;;;13.41;82.89
75438;BME280;64015;49.392;15.582;2023-06-14T05:56:18;95576.31;;;13.42;81.72
75438;BME280;64015;49.392;15.582;2023-06-14T05:58:45;95569.56;;;13.50;80.54
75438;BME280;64015;49.392;15.582;2023-06-14T06:01:10;95571.56;;;13.39;82.00
75438;BME280;64015;49.392;15.582;2023-06-14T06:03:37;95567.59;;;13.56;81.80
75438;BME280;64015;49.392;15.582;2023-06-14T06:06:03;95574.03;;;13.82;80.72
75438;BME280;64015;49.392;15.582;2023-06-14T06:08:29;95572.09;;;14.01;80.03
75438;BME280;64015;49.392;15.582;2023-06-14T06:10:56;95572.31;;;14.18;80.01
75438;BME280;64015;49.392;15.582;2023-06-14T06:13:22;95579.50;;;14.32;78.94
75438;BME280;64015;49.392;15.582;2023-06-14T06:15:48;95583.63;;;14.38;78.22
75438;BME280;64015;49.392;15.582;2023-06-14T06:18:13;95578.44;;;14.33;78.76
75438;BME280;64015;49.392;15.582;2023-06-14T06:20:39;95581.59;;;14.48;78.33
75438;BME280;64015;49.392;15.582;2023-06-14T06:23:05;95594.00;;;14.53;78.16
75438;BME280;64015;49.392;15.582;2023-06-14T06:25:31;95589.81;;;14.74;77.57
75438;BME280;64015;49.392;15.582;2023-06-14T06:27:57;95589.31;;;14.86;75.82
75438;BME280;64015;49.392;15.582;2023-06-14T06:30:24;95593.47;;;14.78;75.08
75438;BME280;64015;49.392;15.582;2023-06-14T06:32:51;95591.59;;;14.65;76.48
75438;BME280;64015;49.392;15.582;2023-06-14T06:35:17;95590.16;;;14.59;75.85
75438;BME280;64015;49.392;15.582;2023-06-14T06:37:43;95596.22;;;14.87;75.44
75438;BME280;64015;49.392;15.582;2023-06-14T06:40:09;95602.03;;;15.11;73.07
75438;BME280;64015;49.392;15.582;2023-06-14T06:42:35;95604.69;;;15.11;73.37
75438;BME280;64015;49.392;15.582;2023-06-14T06:45:01;95602.03;;;15.11;73.77
75438;BME280;64015;49.392;15.582;2023-06-14T06:47:28;95600.97;;;15.12;74.23
75438;BME280;64015;49.392;15.582;2023-06-14T06:49:53;95606.03;;;15.36;72.46
75438;BME280;64015;49.392;15.582;2023-06-14T06:52:19;95610.69;;;15.53;72.65
75438;BME280;64015;49.392;15.582;2023-06-14T06:54:45;95601.72;;;15.62;72.01
75438;BME280;64015;49.392;15.582;2023-06-14T06:57:11;95604.66;;;15.83;72.17
75438;BME280;64015;49.392;15.582;2023-06-14T06:59:37;95615.38;;;15.92;70.31
75438;BME280;64015;49.392;15.582;2023-06-14T07:02:03;95615.22;;;15.97;72.34
75438;BME280;64015;49.392;15.582;2023-06-14T07:04:29;95617.94;;;16.05;70.89
75438;BME280;64015;49.392;15.582;2023-06-14T07:06:55;95615.50;;;16.18;70.60
75438;BME280;64015;49.392;15.582;2023-06-14T07:09:20;95623.13;;;16.11;71.44
75438;BME280;64015;49.392;15.582;2023-06-14T07:11:47;95626.59;;;16.11;70.66
75438;BME280;64015;49.392;15.582;2023-06-14T07:14:13;95623.56;;;16.35;70.25
75438;BME280;64015;49.392;15.582;2023-06-14T07:16:39;95622.50;;;16.45;71.11
75438;BME280;64015;49.392;15.582;2023-06-14T07:19:06;95627.06;;;16.53;72.21
75438;BME280;64015;49.392;15.582;2023-06-14T07:21:32;95621.84;;;16.30;69.51
75438;BME280;64015;49.392;15.582;2023-06-14T07:23:58;95631.66;;;16.21;70.43
75438;BME280;64015;49.392;15.582;2023-06-14T07:26:24;95630.94;;;16.38;70.63
75438;BME280;64015;49.392;15.582;2023-06-14T07:28:50;95629.09;;;16.47;69.33
75438;BME280;64015;49.392;15.582;2023-06-14T07:31:16;95628.41;;;16.64;70.82
75438;BME280;64015;49.392;15.582;2023-06-14T07:33:43;95630.91;;;16.69;70.53
75438;BME280;64015;49.392;15.582;2023-06-14T07:36:09;95634.44;;;16.87;71.54
75438;BME280;64015;49.392;15.582;2023-06-14T07:38:35;95636.56;;;17.33;67.14
75438;BME280;64015;49.392;15.582;2023-06-14T07:41:02;95638.88;;;17.34;64.09
75438;BME280;64015;49.392;15.582;2023-06-14T07:43:28;95631.69;;;17.52;63.64
75438;BME280;64015;49.392;15.582;2023-06-14T07:45:55;95643.47;;;17.51;66.16
75438;BME280;64015;49.392;15.582;2023-06-14T07:48:22;95649.59;;;17.77;64.88
75438;BME280;64015;49.392;15.582;2023-06-14T07:50:48;95649.56;;;18.03;62.65
75438;BME280;64015;49.392;15.582;2023-06-14T07:53:13;95639.03;;;18.15;63.05
75438;BME280;64015;49.392;15.582;2023-06-14T07:55:39;95653.00;;;18.21;61.99
75438;BME280;64015;49.392;15.582;2023-06-14T07:58:08;95650.28;;;18.30;59.35
75438;BME280;64015;49.392;15.582;2023-06-14T08:00:34;95650.88;;;18.35;58.37
75438;BME280;64015;49.392;15.582;2023-06-14T08:03:00;95643.63;;;18.44;58.72
75438;BME280;64015;49.392;15.582;2023-06-14T08:05:26;95644.84;;;18.55;58.44
75438;BME280;64015;49.392;15.582;2023-06-14T08:07:52;95642.13;;;18.73;57.79
75438;BME280;64015;49.392;15.582;2023-06-14T08:10:18;95647.50;;;19.02;55.79
75438;BME280;64015;49.392;15.582;2023-06-14T08:12:44;95650.06;;;18.60;58.09
75438;BME280;64015;49.392;15.582;2023-06-14T08:15:10;95651.78;;;18.56;59.78
75438;BME280;64015;49.392;15.582;2023-06-14T08:17:35;95632.91;;;18.70;57.16
75438;BME280;64015;49.392;15.582;2023-06-14T08:20:02;95650.97;;;18.64;56.60
75438;BME280;64015;49.392;15.582;2023-06-14T08:22:29;95642.06;;;18.60;58.56
75438;BME280;64015;49.392;15.582;2023-06-14T08:24:57;95639.72;;;18.50;57.13
75438;BME280;64015;49.392;15.582;2023-06-14T08:27:23;95651.91;;;18.69;57.44
75438;BME280;64015;49.392;15.582;2023-06-14T08:29:49;95644.28;;;18.88;59.03
75438;BME280;64015;49.392;15.582;2023-06-14T08:32:14;95646.69;;;18.81;58.21
75438;BME280;64015;49.392;15.582;2023-06-14T08:34:40;95648.53;;;18.89;57.01
75438;BME280;64015;49.392;15.582;2023-06-14T08:37:06;95642.72;;;18.87;56.95
75438;BME280;64015;49.392;15.582;2023-06-14T08:39:32;95644.94;;;18.85;57.08
75438;BME280;64015;49.392;15.582;2023-06-14T08:41:58;95645.09;;;19.09;56.82
75438;BME280;64015;49.392;15.582;2023-06-14T08:44:24;95642.34;;;18.97;56.23
75438;BME280;64015;49.392;15.582;2023-06-14T08:46:50;95648.06;;;18.87;55.53
75438;BME280;64015;49.392;15.582;2023-06-14T08:49:17;95637.84;;;19.18;56.02
75438;BME280;64015;49.392;15.582;2023-06-14T08:51:43;95640.50;;;19.39;53.51
75438;BME280;64015;49.392;15.582;2023-06-14T08:54:11;95641.16;;;18.86;55.88
75438;BME280;64015;49.392;15.582;2023-06-14T08:56:38;95640.25;;;18.73;53.93
75438;BME280;64015;49.392;15.582;2023-06-14T08:59:07;95647.31;;;18.31;55.38
75438;BME280;64015;49.392;15.582;2023-06-14T09:01:34;95656.28;;;18.18;56.75
75438;BME280;64015;49.392;15.582;2023-06-14T09:04:00;95656.16;;;18.06;57.61
75438;BME280;64015;49.392;15.582;2023-06-14T09:06:28;95664.34;;;17.66;58.67
75438;BME280;64015;49.392;15.582;2023-06-14T09:08:55;95663.34;;;17.36;60.96
75438;BME280;64015;49.392;15.582;2023-06-14T09:11:24;95662.56;;;17.19;62.02
75438;BME280;64015;49.392;15.582;2023-06-14T09:13:51;95659.66;;;16.89;61.48
75438;BME280;64015;49.392;15.582;2023-06-14T09:16:17;95667.69;;;17.06;62.51
75438;BME280;64015;49.392;15.582;2023-06-14T09:18:44;95666.50;;;17.21;63.59
75438;BME280;64015;49.392;15.582;2023-06-14T09:21:13;95672.13;;;17.20;62.69
75438;BME280;64015;49.392;15.582;2023-06-14T09:23:47;95673.19;;;17.10;63.96
75438;BME280;64015;49.392;15.582;2023-06-14T09:26:17;95669.97;;;16.73;63.62
75438;BME280;64015;49.392;15.582;2023-06-14T09:28:47;95675.22;;;16.96;64.72
75438;BME280;64015;49.392;15.582;2023-06-14T09:31:14;95670.84;;;17.08;71.01
75438;BME280;64015;49.392;15.582;2023-06-14T09:33:45;95677.63;;;16.66;74.88
75438;BME280;64015;49.392;15.582;2023-06-14T09:36:24;95676.72;;;16.79;74.11
75438;BME280;64015;49.392;15.582;2023-06-14T09:38:56;95673.16;;;16.93;75.48
75438;BME280;64015;49.392;15.582;2023-06-14T09:41:50;95675.13;;;16.78;75.89
75438;BME280;64015;49.392;15.582;2023-06-14T09:44:16;95671.53;;;16.74;77.79
75438;BME280;64015;49.392;15.582;2023-06-14T09:46:44;95672.41;;;16.30;81.00
75438;BME280;64015;49.392;15.582;2023-06-14T09:49:10;95678.41;;;16.45;80.54
75438;BME280;64015;49.392;15.582;2023-06-14T09:51:42;95678.38;;;16.36;83.29
75438;BME280;64015;49.392;15.582;2023-06-14T09:54:08;95681.69;;;16.41;76.08
75438;BME280;64015;49.392;15.582;2023-06-14T09:56:37;95677.72;;;16.30;79.43
75438;BME280;64015;49.392;15.582;2023-06-14T09:59:09;95676.28;;;16.24;79.02
75438;BME280;64015;49.392;15.582;2023-06-14T10:01:36;95670.84;;;16.07;81.59
75438;BME280;64015;49.392;15.582;2023-06-14T10:04:07;95674.78;;;15.51;80.24
75438;BME280;64015;49.392;15.582;2023-06-14T10:06:36;95678.47;;;15.78;79.65
75438;BME280;64015;49.392;15.582;2023-06-14T10:09:04;95680.28;;;15.91;78.21
75438;BME280;64015;49.392;15.582;2023-06-14T10:11:32;95681.84;;;15.70;79.59
75438;BME280;64015;49.392;15.582;2023-06-14T10:14:02;95681.28;;;16.03;78.77
75438;BME280;64015;49.392;15.582;2023-06-14T10:16:42;95680.50;;;16.25;72.57
75438;BME280;64015;49.392;15.582;2023-06-14T10:24:28;95688.16;;;16.49;75.93
75438;BME280;64015;49.392;15.582;2023-06-14T10:26:57;95687.19;;;16.67;72.35
75438;BME280;64015;49.392;15.582;2023-06-14T10:29:23;95681.50;;;17.08;70.32
75438;BME280;64015;49.392;15.582;2023-06-14T10:31:56;95691.00;;;17.49;67.26
75438;BME280;64015;49.392;15.582;2023-06-14T10:34:24;95691.19;;;17.78;67.27
75438;BME280;64015;49.392;15.582;2023-06-14T10:37:06;95690.88;;;17.97;65.72
75438;BME280;64015;49.392;15.582;2023-06-14T10:39:45;95692.59;;;17.84;68.17
75438;BME280;64015;49.392;15.582;2023-06-14T10:42:11;95689.25;;;17.62;65.76
75438;BME280;64015;49.392;15.582;2023-06-14T10:47:23;95686.38;;;18.91;65.63
75438;BME280;64015;49.392;15.582;2023-06-14T10:49:52;95690.84;;;19.46;58.52
75438;BME280;64015;49.392;15.582;2023-06-14T10:52:22;95679.00;;;19.47;60.30
75438;BME280;64015;49.392;15.582;2023-06-14T10:55:08;95684.53;;;19.92;57.91
75438;BME280;64015;49.392;15.582;2023-06-14T10:57:54;95677.22;;;19.80;58.25
75438;BME280;64015;49.392;15.582;2023-06-14T11:00:28;95679.66;;;20.39;55.26
75438;BME280;64015;49.392;15.582;2023-06-14T11:05:55;95670.94;;;19.76;50.96
75438;BME280;64015;49.392;15.582;2023-06-14T11:08:33;95672.78;;;20.38;50.11
75438;BME280;64015;49.392;15.582;2023-06-14T11:11:07;95662.66;;;20.80;52.17
75438;BME280;64015;49.392;15.582;2023-06-14T11:13:32;95663.44;;;21.17;48.60
75438;BME280;64015;49.392;15.582;2023-06-14T11:15:59;95653.72;;;20.88;47.51
75438;BME280;64015;49.392;15.582;2023-06-14T11:18:25;95658.22;;;20.84;47.03
75438;BME280;64015;49.392;15.582;2023-06-14T11:20:53;95654.38;;;20.16;48.39
75438;BME280;64015;49.392;15.582;2023-06-14T11:23:19;95656.53;;;20.79;47.55
75438;BME280;64015;49.392;15.582;2023-06-14T11:25:51;95649.13;;;21.37;47.04
75438;BME280;64015;49.392;15.582;2023-06-14T11:28:17;95643.34;;;20.99;47.77
75438;BME280;64015;49.392;15.582;2023-06-14T11:30:45;95640.66;;;20.99;43.37
75438;BME280;64015;49.392;15.582;2023-06-14T11:33:16;95643.78;;;21.37;42.41
75438;BME280;64015;49.392;15.582;2023-06-14T11:35:43;95655.84;;;20.95;45.33
75438;BME280;64015;49.392;15.582;2023-06-14T11:38:10;95646.91;;;21.15;44.43
75438;BME280;64015;49.392;15.582;2023-06-14T11:40:37;95644.25;;;20.91;45.80
75438;BME280;64015;49.392;15.582;2023-06-14T11:43:03;95642.00;;;20.80;42.93
75438;BME280;64015;49.392;15.582;2023-06-14T11:45:30;95644.91;;;20.75;43.69
75438;BME280;64015;49.392;15.582;2023-06-14T11:47:57;95650.72;;;20.65;42.73
75438;BME280;64015;49.392;15.582;2023-06-14T11:50:23;95643.06;;;19.35;45.51
75438;BME280;64015;49.392;15.582;2023-06-14T11:52:56;95653.03;;;19.26;47.19
75438;BME280;64015;49.392;15.582;2023-06-14T11:55:23;95652.09;;;18.55;49.50
75438;BME280;64015;49.392;15.582;2023-06-14T11:57:50;95654.47;;;17.84;51.37
75438;BME280;64015;49.392;15.582;2023-06-14T12:00:16;95653.63;;;18.18;49.90
75438;BME280;64015;49.392;15.582;2023-06-14T12:02:43;95651.06;;;18.39;51.58
75438;BME280;64015;49.392;15.582;2023-06-14T12:05:20;95652.31;;;18.41;50.11
75438;BME280;64015;49.392;15.582;2023-06-14T12:07:46;95645.84;;;18.51;49.22
75438;BME280;64015;49.392;15.582;2023-06-14T12:10:13;95653.50;;;18.70;51.47
75438;BME280;64015;49.392;15.582;2023-06-14T12:12:42;95652.69;;;19.07;48.84
75438;BME280;64015;49.392;15.582;2023-06-14T12:15:09;95658.94;;;19.11;50.97
75438;BME280;64015;49.392;15.582;2023-06-14T12:17:37;95643.22;;;19.60;49.93
75438;BME280;64015;49.392;15.582;2023-06-14T12:20:14;95645.97;;;19.51;46.78
75438;BME280;64015;49.392;15.582;2023-06-14T12:22:55;95651.81;;;19.45;46.57
75438;BME280;64015;49.392;15.582;2023-06-14T12:25:35;95647.38;;;19.49;46.37
75438;BME280;64015;49.392;15.582;2023-06-14T12:28:06;95646.66;;;19.10;46.10
75438;BME280;64015;49.392;15.582;2023-06-14T12:30:34;95651.56;;;19.08;43.94
75438;BME280;64015;49.392;15.582;2023-06-14T12:33:02;95651.84;;;19.15;45.43
75438;BME280;64015;49.392;15.582;2023-06-14T12:35:31;95647.91;;;19.63;43.16
75438;BME280;64015;49.392;15.582;2023-06-14T12:37:57;95650.38;;;19.89;42.22
75438;BME280;64015;49.392;15.582;2023-06-14T12:40:23;95647.06;;;19.50;42.62
75438;BME280;64015;49.392;15.582;2023-06-14T12:42:49;95643.69;;;19.32;44.11
75438;BME280;64015;49.392;15.582;2023-06-14T12:45:15;95641.72;;;19.21;44.00
75438;BME280;64015;49.392;15.582;2023-06-14T12:51:22;95632.94;;;20.16;44.45
75438;BME280;64015;49.392;15.582;2023-06-14T12:54:01;95634.00;;;20.02;45.32
75438;BME280;64015;49.392;15.582;2023-06-14T12:56:27;95634.97;;;20.19;45.28
75438;BME280;64015;49.392;15.582;2023-06-14T12:58:52;95630.41;;;20.31;42.83
75438;BME280;64015;49.392;15.582;2023-06-14T13:01:19;95646.13;;;20.66;41.43
75438;BME280;64015;49.392;15.582;2023-06-14T13:03:45;95640.22;;;20.72;42.49
75438;BME280;64015;49.392;15.582;2023-06-14T13:06:11;95650.16;;;21.08;41.99
75438;BME280;64015;49.392;15.582;2023-06-14T13:08:37;95641.44;;;21.36;43.54